Oscoda, MI (48750)

3:13 AM EDT on July 30, 2016 (GMT -0400)
Oscoda-Wurtsmith | | Change Station

Elev 633 ft 44.45 °N, 83.39 °W | Updated 19 minutes ago

Clear
Clear
66 °F
Feels Like 66 °F
N
9
Wind Variable Wind from ENE

Today
High -- | Low -- °F
--% Chance of Precip.
Yesterday
High -- | Low -- °F
Precip. -- in
Pressure 30.03 in
Visibility 10.0 miles
Clouds Clear
Dew Point 59 °F
Humidity 78%
Rainfall 0.00 in
Snow Depth Not available.
6:19 AM 9:00 PM
Waning Crescent, 15% visible
METAR KOSC 300654Z AUTO 06008KT 10SM CLR 19/15 A3003 RMK AO2 T01910151
Pressure 30.03 in
Visibility 10.0 miles
Clouds Clear
Dew Point 59 °F
Humidity 78%
Rainfall 0.00 in
Snow Depth Not available.
6:19 AM 9:00 PM
Waning Crescent, 15% visible
METAR KOSC 300654Z AUTO 06008KT 10SM CLR 19/15 A3003 RMK AO2 T01910151

10-Day Weather Forecast

Almanac

Astronomy

Jul. 30, 2016 Rise Set
Actual Time
Civil Twilight
Nautical Twilight
Astronomical Twilight
Moon
Length of Visible Light
Length of Day
Tomorrow will be .
, % of the Moon is Illuminated

Today's Extremes

State Highs State Lows

Community

WunderPhotos

Upload Photos

1,928,508 photos uploaded!

WunderBlog® & News

Nearby

Air Quality

  Air Quality AQ Index Pollutant
Not available.

Snow Depth

Station Depth Elevation

Earthquake Activity

City Distance Mag. Time & Date
Minimum magnitude displayed is 2.5.

Coastal Water Temperatures

Place Temperature

Stations

Nearby Weather Stations

Station Location Temp. Windchill Dew Point Humidity Wind Precip. Elev Updated Type
                   

Watches & Warnings

There are currently no watches in effect.